x

La Perouse Bank (46206) Wave Buoy

10:00 - Mon 30th May 2016 All times are PDT. -7 hours from GMT.

  • Sig Wave height 3.0ft
  • Peak Period 12s
  • Wind
    4mph, 9mph gusts
  • Sea Temp 55°f
  • Aire Temp 55°f
  • Sea Pressure 1023.5mb
  • La Perouse Bank
  • La Perouse Bank

More Historic Weather Station data

Upgrade to MSW Pro to gain access to the past 30 days of data for over 8000 Wavebouys and Weather Stations around the globe.

Join Pro

Comparision Forecast

View Surf forecast
   
lun 05/30 10:00 3ft 12s 4 9 mph 1023.5mb 55f 55f
9:00 3ft 12s 9 13 mph 1023.7mb 55f 55f
8:00 3ft 13s 11 16 mph 1024.1mb 55f 55f
7:00 3.5ft 13s 13 16 mph 1024.6mb 55f 55f
6:00 3ft 11s 13 16 mph 1025mb 55f 55f
5:00 3ft 12s 9 13 mph 1025.6mb 55f 55f
4:00 3ft 13s 11 13 mph 1026.2mb 55f 55f
3:00 3ft 12s 11 13 mph 1026.6mb 55f 55f
2:00 3ft 13s 9 13 mph 1026.9mb 55f 55f
1:00 3ft 12s 9 13 mph 1027.1mb 55f 55f
12:00 3ft 6s 9 11 mph 1027.3mb 55f 55f
11:00 3ft 11s 4 9 mph 1027.3mb 55f 55f
10:00 3ft 12s 4
mph
1027mb 54f 54f
9:00 3ft 18s 4
mph
1026.9mb 54f 54f
8:00 3.5ft 7s 4 7 mph 1026.7mb 54f 54f
7:00 3.5ft 18s 9 13 mph 1026.5mb 54f 54f
6:00 3.5ft 12s 11 13 mph 1026.1mb 54f 54f
5:00 4ft 7s 11 13 mph 1026.3mb 54f 54f
4:00 4ft 5s 11 16 mph 1026.2mb 54f 54f
3:00 4.5ft 6s 13 16 mph 1025.9mb 54f 54f
2:00 4.5ft 5s 13 18 mph 1025.7mb 54f 54f
1:00 4.5ft 5s 16 20 mph 1025.3mb 54f 54f
12:00 4.5ft 4s 18 22 mph 1025.3mb 54f 54f
dom 05/29 11:00 4.5ft 4s 18 20 mph 1024.9mb 55f 54f
10:00 4.5ft 7s 16 18 mph 1024.7mb 54f 54f
9:00  -   -  18
mph
- - -
8:00 4.5ft 5s 18 22 mph 1023.9mb 55f 55f
7:00 4.5ft 8s 18 20 mph 1023.8mb 55f 55f
6:00 4.5ft 4s 18 22 mph 1023.8mb 55f 55f
5:00 4.5ft 5s 18 22 mph 1023.6mb 55f 55f
4:00 3.5ft 4s 18 20 mph 1023.5mb 55f 55f
3:00 3.5ft 6s 18 20 mph 1023.3mb 55f 55f
2:00 3.5ft 6s 16 18 mph 1023.1mb 55f 55f
1:00 3.5ft 7s 11 16 mph 1022.8mb 55f 54f
12:00 3.5ft 6s 9 13 mph 1022.3mb 55f 54f
11:00 3.5ft 7s 7 11 mph 1021.6mb 55f 54f
10:00 3.5ft 6s 9 11 mph 1020.9mb 55f 54f
9:00 3.5ft 6s 11 13 mph 1020.5mb 55f 54f
8:00 3ft 5s 9 13 mph 1020mb 55f 54f
7:00 3.5ft 6s 7 11 mph 1019.5mb 55f 54f
6:00 3.5ft 6s 4 11 mph 1019.1mb 55f 54f
5:00 3.5ft 14s 7 11 mph 1018.6mb 55f 53f
4:00 3.5ft 6s 9 13 mph 1018.3mb 55f 54f
3:00 3.5ft 6s 7 13 mph 1018mb 55f 54f
2:00 3.5ft 6s 7 13 mph 1017.9mb 55f 53f
1:00 3.5ft 6s 9 16 mph 1017.5mb 55f 54f
12:00 3.5ft 6s 7 11 mph 1017.4mb 55f 54f
sáb 05/28 11:00 3.5ft 6s 13 16 mph 1017.3mb 55f 53f
10:00 3.5ft 7s 13 16 mph 1016.9mb 56f 53f
9:00 3.5ft 6s 9 13 mph 1016.4mb 56f 53f
8:00 3.5ft 6s 9 16 mph 1016.1mb 56f 54f
7:00 3.5ft 6s 13 16 mph 1015.8mb 56f 54f
6:00 3.5ft 6s 7 13 mph 1015.3mb 55f 54f
5:00 4ft 6s 9 13 mph 1015.1mb 55f 53f
4:00 3.5ft 7s 11 16 mph 1015.1mb 55f 53f
3:00 4.5ft 7s 7 9 mph 1014.8mb 55f 54f
2:00 4.5ft 6s 7 11 mph 1014.7mb 55f 55f
1:00 4.5ft 6s 7 11 mph 1014.3mb 55f 54f
12:00 4.5ft 7s 9 11 mph 1014mb 54f 55f
11:00 4.5ft 7s 9 11 mph 1013.6mb 54f 54f
10:00 4.5ft 6s 11 13 mph 1013.4mb 54f 54f
9:00 5ft 7s 7 11 mph 1013.3mb 54f 54f
8:00 4.5ft 6s 9 11 mph 1013.1mb 54f 54f
7:00 4ft 5s 9 13 mph 1013.1mb 54f 54f
5:00 3.5ft 4s 16 20 mph 1013mb 54f 54f
4:00 3.5ft 3s 13 20 mph 1013.4mb 53f 54f
3:00 3ft 7s 18 22 mph 1014.1mb 54f 52f
2:00 2.5ft 7s 13 20 mph 1015.8mb 54f 51f
1:00 3ft 7s 7 11 mph 1017.4mb 54f 50f
12:00 3.5ft 8s 7 11 mph 1018.2mb 54f 50f
vie 05/27 11:00 3.5ft 8s 4 7 mph 1019mb 54f 51f
10:00 3ft 7s 4 7 mph 1019.3mb 54f 51f
9:00 3.5ft 7s 7 9 mph 1019.5mb 54f 51f
8:00 3ft 8s 4 7 mph 1020.1mb 54f 51f
7:00 3.5ft 7s 2 4 mph 1020.4mb 54f 51f
6:00 3.5ft 7s 7 9 mph 1020.6mb 54f 51f
5:00 4ft 8s 9 13 mph 1020.9mb 54f 52f
4:00 4.5ft 7s 11 18 mph 1021.1mb 54f 53f
3:00 4.5ft 7s 13
mph
1021.3mb 54f 53f
2:00 5ft 5s 11 13 mph 1021.3mb 54f 53f
1:00 5ft 7s 11 16 mph 1021.4mb 53f 53f
12:00 5ft 7s 13 18 mph 1021.3mb 53f 53f
11:00 5ft 7s 13 18 mph 1021.3mb 53f 53f
10:00 5ft 6s 18 20 mph 1021.1mb 53f 53f
9:00 6ft 7s 18 22 mph 1020.7mb 53f 53f
8:00 6ft 7s 20 22 mph 1020.6mb 53f 53f
7:00 6.5ft 7s 18 22 mph 1020.2mb 53f 53f